sensor_id;sensor_type;location;lat;lon;timestamp;pressure;altitude;pressure_sealevel;temperature;humidity
2397;BME280;1209;48.410;9.054;2023-02-22T00:00:25;96131.31;;;4.68;100.00
2397;BME280;1209;48.410;9.054;2023-02-22T00:03:09;96120.09;;;4.87;100.00
2397;BME280;1209;48.410;9.054;2023-02-22T00:05:35;96132.06;;;4.88;100.00
2397;BME280;1209;48.410;9.054;2023-02-22T00:08:03;96128.66;;;4.87;100.00
2397;BME280;1209;48.410;9.054;2023-02-22T00:10:29;96119.91;;;4.98;100.00
2397;BME280;1209;48.410;9.054;2023-02-22T00:12:55;96129.63;;;4.86;100.00
2397;BME280;1209;48.410;9.054;2023-02-22T00:15:35;96134.66;;;4.41;100.00
2397;BME280;1209;48.410;9.054;2023-02-22T00:18:01;96126.81;;;4.14;100.00
2397;BME280;1209;48.410;9.054;2023-02-22T00:20:27;96138.25;;;3.92;100.00
2397;BME280;1209;48.410;9.054;2023-02-22T00:22:52;96132.66;;;3.77;100.00
2397;BME280;1209;48.410;9.054;2023-02-22T00:25:20;96135.00;;;3.80;100.00
2397;BME280;1209;48.410;9.054;2023-02-22T00:27:47;96146.28;;;3.79;100.00
2397;BME280;1209;48.410;9.054;2023-02-22T00:30:19;96146.81;;;3.73;100.00
2397;BME280;1209;48.410;9.054;2023-02-22T00:32:45;96151.28;;;3.61;100.00
2397;BME280;1209;48.410;9.054;2023-02-22T00:35:13;96150.19;;;3.54;100.00
2397;BME280;1209;48.410;9.054;2023-02-22T00:37:38;96143.81;;;3.48;100.00
2397;BME280;1209;48.410;9.054;2023-02-22T00:40:08;96138.78;;;3.66;100.00
2397;BME280;1209;48.410;9.054;2023-02-22T00:42:33;96142.31;;;3.46;100.00
2397;BME280;1209;48.410;9.054;2023-02-22T00:44:58;96142.03;;;3.59;100.00
2397;BME280;1209;48.410;9.054;2023-02-22T00:47:23;96141.50;;;3.74;100.00
2397;BME280;1209;48.410;9.054;2023-02-22T00:49:50;96147.50;;;3.85;100.00
2397;BME280;1209;48.410;9.054;2023-02-22T00:52:15;96142.63;;;3.82;100.00
2397;BME280;1209;48.410;9.054;2023-02-22T00:54:41;96144.09;;;3.74;100.00
2397;BME280;1209;48.410;9.054;2023-02-22T00:57:07;96138.28;;;3.82;100.00
2397;BME280;1209;48.410;9.054;2023-02-22T00:59:33;96135.28;;;3.96;100.00
2397;BME280;1209;48.410;9.054;2023-02-22T01:01:58;96140.16;;;3.99;100.00
2397;BME280;1209;48.410;9.054;2023-02-22T01:04:23;96139.22;;;3.91;100.00
2397;BME280;1209;48.410;9.054;2023-02-22T01:06:49;96133.75;;;3.65;100.00
2397;BME280;1209;48.410;9.054;2023-02-22T01:09:14;96134.03;;;3.71;100.00
2397;BME280;1209;48.410;9.054;2023-02-22T01:11:39;96126.84;;;3.85;100.00
2397;BME280;1209;48.410;9.054;2023-02-22T01:14:05;96123.03;;;3.89;100.00
2397;BME280;1209;48.410;9.054;2023-02-22T01:16:34;96123.03;;;3.98;100.00
2397;BME280;1209;48.410;9.054;2023-02-22T01:18:59;96119.50;;;3.70;100.00
2397;BME280;1209;48.410;9.054;2023-02-22T01:21:25;96118.25;;;3.65;100.00
2397;BME280;1209;48.410;9.054;2023-02-22T01:23:50;96103.75;;;3.83;100.00
2397;BME280;1209;48.410;9.054;2023-02-22T01:26:16;96110.25;;;3.87;100.00
2397;BME280;1209;48.410;9.054;2023-02-22T01:28:41;96113.25;;;3.83;100.00
2397;BME280;1209;48.410;9.054;2023-02-22T01:31:06;96102.50;;;3.97;100.00
2397;BME280;1209;48.410;9.054;2023-02-22T01:33:31;96096.94;;;3.92;100.00
2397;BME280;1209;48.410;9.054;2023-02-22T01:35:58;96101.00;;;3.94;100.00
2397;BME280;1209;48.410;9.054;2023-02-22T01:38:24;96095.44;;;3.99;100.00
2397;BME280;1209;48.410;9.054;2023-02-22T01:40:50;96097.06;;;4.00;100.00
2397;BME280;1209;48.410;9.054;2023-02-22T01:43:23;96091.91;;;4.00;100.00
2397;BME280;1209;48.410;9.054;2023-02-22T01:46:18;96093.94;;;3.87;100.00
2397;BME280;1209;48.410;9.054;2023-02-22T01:48:49;96088.38;;;3.91;100.00
2397;BME280;1209;48.410;9.054;2023-02-22T01:51:19;96084.28;;;3.98;100.00
2397;BME280;1209;48.410;9.054;2023-02-22T01:53:53;96083.22;;;3.91;100.00
2397;BME280;1209;48.410;9.054;2023-02-22T01:56:21;96081.44;;;3.92;100.00
2397;BME280;1209;48.410;9.054;2023-02-22T01:58:54;96078.72;;;3.84;100.00
2397;BME280;1209;48.410;9.054;2023-02-22T02:01:22;96075.75;;;3.78;100.00
2397;BME280;1209;48.410;9.054;2023-02-22T02:03:49;96067.59;;;3.83;100.00
2397;BME280;1209;48.410;9.054;2023-02-22T02:06:15;96066.50;;;3.86;100.00
2397;BME280;1209;48.410;9.054;2023-02-22T02:08:57;96065.00;;;3.93;100.00
2397;BME280;1209;48.410;9.054;2023-02-22T02:11:25;96065.00;;;3.93;100.00
2397;BME280;1209;48.410;9.054;2023-02-22T02:13:52;96068.50;;;4.01;100.00
2397;BME280;1209;48.410;9.054;2023-02-22T02:16:23;96055.47;;;3.93;100.00
2397;BME280;1209;48.410;9.054;2023-02-22T02:18:50;96053.03;;;3.92;100.00
2397;BME280;1209;48.410;9.054;2023-02-22T02:27:29;96055.63;;;3.72;100.00
2397;BME280;1209;48.410;9.054;2023-02-22T02:32:57;96040.97;;;3.54;100.00
2397;BME280;1209;48.410;9.054;2023-02-22T02:40:48;96021.53;;;3.59;100.00
2397;BME280;1209;48.410;9.054;2023-02-22T02:44:10;96021.94;;;3.64;100.00
2397;BME280;1209;48.410;9.054;2023-02-22T02:46:38;96017.72;;;3.54;100.00
2397;BME280;1209;48.410;9.054;2023-02-22T02:49:10;96016.38;;;3.50;100.00
2397;BME280;1209;48.410;9.054;2023-02-22T02:51:40;96012.59;;;3.34;100.00
2397;BME280;1209;48.410;9.054;2023-02-22T02:54:06;96012.97;;;3.49;100.00
2397;BME280;1209;48.410;9.054;2023-02-22T02:56:33;96010.28;;;3.41;100.00
2397;BME280;1209;48.410;9.054;2023-02-22T02:58:58;96016.38;;;3.40;100.00
2397;BME280;1209;48.410;9.054;2023-02-22T03:07:04;96004.81;;;3.25;100.00
2397;BME280;1209;48.410;9.054;2023-02-22T03:09:40;96003.59;;;3.29;100.00
2397;BME280;1209;48.410;9.054;2023-02-22T03:14:59;95998.16;;;3.22;100.00
2397;BME280;1209;48.410;9.054;2023-02-22T03:17:50;95991.91;;;3.25;100.00
2397;BME280;1209;48.410;9.054;2023-02-22T03:23:00;95996.00;;;3.27;100.00
2397;BME280;1209;48.410;9.054;2023-02-22T03:25:33;95998.19;;;3.32;100.00
2397;BME280;1209;48.410;9.054;2023-02-22T03:28:06;95999.25;;;3.20;100.00
2397;BME280;1209;48.410;9.054;2023-02-22T03:30:41;95995.59;;;3.22;100.00
2397;BME280;1209;48.410;9.054;2023-02-22T03:33:14;96002.91;;;3.27;100.00
2397;BME280;1209;48.410;9.054;2023-02-22T03:35:49;95992.59;;;3.17;100.00
2397;BME280;1209;48.410;9.054;2023-02-22T03:38:23;95995.72;;;3.21;100.00
2397;BME280;1209;48.410;9.054;2023-02-22T03:40:53;95990.44;;;3.12;100.00
2397;BME280;1209;48.410;9.054;2023-02-22T03:43:28;95995.03;;;2.99;100.00
2397;BME280;1209;48.410;9.054;2023-02-22T03:45:56;95990.28;;;3.14;100.00
2397;BME280;1209;48.410;9.054;2023-02-22T03:51:11;95982.28;;;3.07;100.00
2397;BME280;1209;48.410;9.054;2023-02-22T03:53:39;95990.84;;;3.17;100.00
2397;BME280;1209;48.410;9.054;2023-02-22T03:56:07;95990.28;;;3.14;100.00
2397;BME280;1209;48.410;9.054;2023-02-22T03:58:35;95981.19;;;3.20;100.00
2397;BME280;1209;48.410;9.054;2023-02-22T04:01:02;95985.94;;;3.14;100.00
2397;BME280;1209;48.410;9.054;2023-02-22T04:03:27;95984.88;;;3.17;100.00
2397;BME280;1209;48.410;9.054;2023-02-22T04:05:52;95980.94;;;3.13;100.00
2397;BME280;1209;48.410;9.054;2023-02-22T04:08:18;95982.00;;;3.10;100.00
2397;BME280;1209;48.410;9.054;2023-02-22T04:10:43;95987.59;;;2.96;100.00
2397;BME280;1209;48.410;9.054;2023-02-22T04:13:09;95981.97;;;2.81;100.00
2397;BME280;1209;48.410;9.054;2023-02-22T04:15:34;95977.63;;;2.82;100.00
2397;BME280;1209;48.410;9.054;2023-02-22T04:18:00;95981.28;;;2.70;100.00
2397;BME280;1209;48.410;9.054;2023-02-22T04:20:25;95985.78;;;2.77;100.00
2397;BME280;1209;48.410;9.054;2023-02-22T04:22:51;95981.69;;;2.75;100.00
2397;BME280;1209;48.410;9.054;2023-02-22T04:25:18;95980.75;;;2.66;100.00
2397;BME280;1209;48.410;9.054;2023-02-22T04:27:43;95985.38;;;2.82;100.00
2397;BME280;1209;48.410;9.054;2023-02-22T04:30:10;95978.72;;;2.79;100.00
2397;BME280;1209;48.410;9.054;2023-02-22T04:32:36;95978.56;;;2.71;100.00
2397;BME280;1209;48.410;9.054;2023-02-22T04:35:03;95971.69;;;2.32;100.00
2397;BME280;1209;48.410;9.054;2023-02-22T04:37:29;95979.16;;;2.35;100.00
2397;BME280;1209;48.410;9.054;2023-02-22T04:39:54;95972.03;;;2.48;100.00
2397;BME280;1209;48.410;9.054;2023-02-22T04:42:20;95969.47;;;2.58;100.00
2397;BME280;1209;48.410;9.054;2023-02-22T04:44:45;95976.94;;;2.20;100.00
2397;BME280;1209;48.410;9.054;2023-02-22T04:47:10;95979.63;;;2.49;100.00
2397;BME280;1209;48.410;9.054;2023-02-22T04:49:36;95976.66;;;2.54;100.00
2397;BME280;1209;48.410;9.054;2023-02-22T04:52:01;95981.28;;;2.60;100.00
2397;BME280;1209;48.410;9.054;2023-02-22T04:54:26;95974.50;;;2.59;100.00
2397;BME280;1209;48.410;9.054;2023-02-22T04:56:51;95971.22;;;2.47;100.00
2397;BME280;1209;48.410;9.054;2023-02-22T04:59:17;95975.84;;;2.53;100.00
2397;BME280;1209;48.410;9.054;2023-02-22T05:01:44;95976.66;;;2.54;100.00
2397;BME280;1209;48.410;9.054;2023-02-22T05:04:09;95971.91;;;2.09;100.00
2397;BME280;1209;48.410;9.054;2023-02-22T05:06:35;95969.97;;;2.02;100.00
2397;BME280;1209;48.410;9.054;2023-02-22T05:09:00;95966.00;;;2.28;100.00
2397;BME280;1209;48.410;9.054;2023-02-22T05:11:26;95968.34;;;2.41;100.00
2397;BME280;1209;48.410;9.054;2023-02-22T05:13:51;95967.47;;;2.21;100.00
2397;BME280;1209;48.410;9.054;2023-02-22T05:16:16;95962.53;;;2.39;100.00
2397;BME280;1209;48.410;9.054;2023-02-22T05:18:42;95964.78;;;2.32;100.00
2397;BME280;1209;48.410;9.054;2023-02-22T05:21:07;95970.41;;;2.47;100.00
2397;BME280;1209;48.410;9.054;2023-02-22T05:23:33;95966.88;;;2.08;100.00
2397;BME280;1209;48.410;9.054;2023-02-22T05:25:58;95963.34;;;2.09;100.00
2397;BME280;1209;48.410;9.054;2023-02-22T05:28:24;95965.28;;;2.16;100.00
2397;BME280;1209;48.410;9.054;2023-02-22T05:30:49;95961.09;;;2.25;100.00
2397;BME280;1209;48.410;9.054;2023-02-22T05:33:14;95963.53;;;2.27;100.00
2397;BME280;1209;48.410;9.054;2023-02-22T05:35:39;95960.56;;;2.31;100.00
2397;BME280;1209;48.410;9.054;2023-02-22T05:38:14;95954.31;;;2.24;100.00
2397;BME280;1209;48.410;9.054;2023-02-22T05:40:40;95955.69;;;2.28;100.00
2397;BME280;1209;48.410;9.054;2023-02-22T05:43:06;95964.50;;;2.26;100.00
2397;BME280;1209;48.410;9.054;2023-02-22T05:45:31;95954.88;;;2.28;100.00
2397;BME280;1209;48.410;9.054;2023-02-22T05:47:57;95957.88;;;2.33;100.00
2397;BME280;1209;48.410;9.054;2023-02-22T05:50:23;95952.28;;;2.28;100.00
2397;BME280;1209;48.410;9.054;2023-02-22T05:52:49;95956.34;;;2.20;100.00
2397;BME280;1209;48.410;9.054;2023-02-22T05:55:16;95947.63;;;2.02;100.00
2397;BME280;1209;48.410;9.054;2023-02-22T05:57:42;95949.16;;;2.14;100.00
2397;BME280;1209;48.410;9.054;2023-02-22T06:00:08;95940.72;;;2.12;100.00
2397;BME280;1209;48.410;9.054;2023-02-22T06:02:34;95946.72;;;2.22;100.00
2397;BME280;1209;48.410;9.054;2023-02-22T06:04:59;95948.09;;;2.27;100.00
2397;BME280;1209;48.410;9.054;2023-02-22T06:07:24;95937.91;;;2.25;100.00
2397;BME280;1209;48.410;9.054;2023-02-22T06:09:50;95944.13;;;2.13;100.00
2397;BME280;1209;48.410;9.054;2023-02-22T06:12:15;95936.25;;;2.05;100.00
2397;BME280;1209;48.410;9.054;2023-02-22T06:14:41;95932.91;;;2.24;100.00
2397;BME280;1209;48.410;9.054;2023-02-22T06:17:10;95945.13;;;2.31;100.00
2397;BME280;1209;48.410;9.054;2023-02-22T06:19:37;95935.72;;;2.11;100.00
2397;BME280;1209;48.410;9.054;2023-02-22T06:22:03;95940.03;;;2.01;100.00
2397;BME280;1209;48.410;9.054;2023-02-22T06:24:29;95939.22;;;2.10;100.00
2397;BME280;1209;48.410;9.054;2023-02-22T06:26:55;95944.81;;;2.15;100.00
2397;BME280;1209;48.410;9.054;2023-02-22T06:29:22;95934.47;;;2.05;100.00
2397;BME280;1209;48.410;9.054;2023-02-22T06:31:48;95940.31;;;2.07;100.00
2397;BME280;1209;48.410;9.054;2023-02-22T06:34:13;95939.94;;;2.21;100.00
2397;BME280;1209;48.410;9.054;2023-02-22T06:36:38;95940.31;;;2.07;100.00
2397;BME280;1209;48.410;9.054;2023-02-22T06:39:04;95944.28;;;2.21;100.00
2397;BME280;1209;48.410;9.054;2023-02-22T06:41:29;95945.63;;;2.15;100.00
2397;BME280;1209;48.410;9.054;2023-02-22T06:43:54;95950.38;;;2.20;100.00
2397;BME280;1209;48.410;9.054;2023-02-22T06:46:20;95949.84;;;2.26;100.00
2397;BME280;1209;48.410;9.054;2023-02-22T06:48:45;95950.66;;;2.27;100.00
2397;BME280;1209;48.410;9.054;2023-02-22T06:51:11;95956.22;;;2.32;100.00
2397;BME280;1209;48.410;9.054;2023-02-22T06:53:36;95945.31;;;2.39;100.00
2397;BME280;1209;48.410;9.054;2023-02-22T06:56:01;95955.34;;;2.52;100.00
2397;BME280;1209;48.410;9.054;2023-02-22T06:58:27;95946.53;;;2.55;100.00
2397;BME280;1209;48.410;9.054;2023-02-22T07:00:53;95953.31;;;2.56;100.00
2397;BME280;1209;48.410;9.054;2023-02-22T07:03:18;95949.66;;;2.58;100.00
2397;BME280;1209;48.410;9.054;2023-02-22T07:05:44;95964.06;;;2.70;100.00
2397;BME280;1209;48.410;9.054;2023-02-22T07:08:09;95954.44;;;2.82;100.00
2397;BME280;1209;48.410;9.054;2023-02-22T07:10:36;95954.47;;;2.92;100.00
2397;BME280;1209;48.410;9.054;2023-02-22T07:13:02;95952.56;;;3.03;100.00
2397;BME280;1209;48.410;9.054;2023-02-22T07:15:29;95955.97;;;3.04;100.00
2397;BME280;1209;48.410;9.054;2023-02-22T07:17:55;95954.19;;;3.14;100.00
2397;BME280;1209;48.410;9.054;2023-02-22T07:20:22;95953.78;;;3.19;100.00
2397;BME280;1209;48.410;9.054;2023-02-22T07:22:49;95955.00;;;3.24;100.00
2397;BME280;1209;48.410;9.054;2023-02-22T07:25:14;95962.75;;;3.34;100.00
2397;BME280;1209;48.410;9.054;2023-02-22T07:27:41;95956.50;;;3.36;100.00
2397;BME280;1209;48.410;9.054;2023-02-22T07:30:28;95964.09;;;3.47;100.00
2397;BME280;1209;48.410;9.054;2023-02-22T07:33:01;95964.72;;;3.59;100.00
2397;BME280;1209;48.410;9.054;2023-02-22T07:35:29;95956.00;;;3.70;100.00
2397;BME280;1209;48.410;9.054;2023-02-22T07:37:55;95958.31;;;3.73;100.00
2397;BME280;1209;48.410;9.054;2023-02-22T07:40:22;95962.25;;;3.77;100.00
2397;BME280;1209;48.410;9.054;2023-02-22T07:42:52;95965.91;;;3.84;100.00
2397;BME280;1209;48.410;9.054;2023-02-22T07:45:18;95959.75;;;3.95;100.00
2397;BME280;1209;48.410;9.054;2023-02-22T07:47:47;95962.53;;;4.11;100.00
2397;BME280;1209;48.410;9.054;2023-02-22T07:50:17;95963.88;;;4.15;100.00
2397;BME280;1209;48.410;9.054;2023-02-22T07:52:47;95958.00;;;4.23;100.00
2397;BME280;1209;48.410;9.054;2023-02-22T07:55:15;95952.69;;;4.24;100.00
2397;BME280;1209;48.410;9.054;2023-02-22T07:57:42;95960.03;;;4.29;100.00
2397;BME280;1209;48.410;9.054;2023-02-22T08:00:09;95954.44;;;4.33;100.00
2397;BME280;1209;48.410;9.054;2023-02-22T08:02:34;95956.16;;;4.42;100.00
2397;BME280;1209;48.410;9.054;2023-02-22T08:04:59;95955.00;;;4.55;100.00
2397;BME280;1209;48.410;9.054;2023-02-22T08:07:25;95958.78;;;4.60;100.00
2397;BME280;1209;48.410;9.054;2023-02-22T08:09:50;95958.44;;;4.73;100.00
2397;BME280;1209;48.410;9.054;2023-02-22T08:12:15;95961.91;;;4.82;100.00
2397;BME280;1209;48.410;9.054;2023-02-22T08:14:41;95962.53;;;4.93;100.00
2397;BME280;1209;48.410;9.054;2023-02-22T08:17:06;95953.28;;;5.09;100.00
2397;BME280;1209;48.410;9.054;2023-02-22T08:19:31;95957.94;;;5.23;100.00
2397;BME280;1209;48.410;9.054;2023-02-22T08:21:56;95959.78;;;5.30;100.00
2397;BME280;1209;48.410;9.054;2023-02-22T08:24:22;95950.31;;;5.39;100.00
2397;BME280;1209;48.410;9.054;2023-02-22T08:26:47;95948.28;;;5.51;100.00
2397;BME280;1209;48.410;9.054;2023-02-22T08:29:12;95950.31;;;5.65;100.00
2397;BME280;1209;48.410;9.054;2023-02-22T08:31:39;95950.94;;;5.85;100.00
2397;BME280;1209;48.410;9.054;2023-02-22T08:34:04;95947.63;;;5.92;100.00
2397;BME280;1209;48.410;9.054;2023-02-22T08:36:29;95939.75;;;6.10;100.00
2397;BME280;1209;48.410;9.054;2023-02-22T08:38:57;95943.09;;;6.28;100.00
2397;BME280;1209;48.410;9.054;2023-02-22T08:41:22;95939.41;;;6.39;100.00
2397;BME280;1209;48.410;9.054;2023-02-22T08:43:47;95949.31;;;6.44;100.00
2397;BME280;1209;48.410;9.054;2023-02-22T08:46:15;95943.47;;;6.42;100.00
2397;BME280;1209;48.410;9.054;2023-02-22T08:48:49;95936.38;;;6.52;100.00
2397;BME280;1209;48.410;9.054;2023-02-22T08:51:14;95941.47;;;6.70;100.00
2397;BME280;1209;48.410;9.054;2023-02-22T08:53:40;95938.56;;;6.81;100.00
2397;BME280;1209;48.410;9.054;2023-02-22T08:56:05;95942.81;;;6.90;100.00
2397;BME280;1209;48.410;9.054;2023-02-22T08:58:30;95946.09;;;7.16;100.00
2397;BME280;1209;48.410;9.054;2023-02-22T09:00:56;95946.91;;;7.41;100.00
2397;BME280;1209;48.410;9.054;2023-02-22T09:03:22;95939.44;;;7.54;100.00
2397;BME280;1209;48.410;9.054;2023-02-22T09:05:47;95932.28;;;7.73;100.00
2397;BME280;1209;48.410;9.054;2023-02-22T09:08:14;95926.13;;;7.66;100.00
2397;BME280;1209;48.410;9.054;2023-02-22T09:10:39;95935.19;;;7.78;100.00
2397;BME280;1209;48.410;9.054;2023-02-22T09:13:05;95937.47;;;7.73;100.00
2397;BME280;1209;48.410;9.054;2023-02-22T09:15:31;95927.72;;;7.75;100.00
2397;BME280;1209;48.410;9.054;2023-02-22T09:17:58;95936.47;;;7.82;100.00
2397;BME280;1209;48.410;9.054;2023-02-22T09:20:23;95940.00;;;8.13;100.00
2397;BME280;1209;48.410;9.054;2023-02-22T09:22:49;95938.94;;;8.31;100.00
2397;BME280;1209;48.410;9.054;2023-02-22T09:25:15;95935.84;;;8.43;100.00
2397;BME280;1209;48.410;9.054;2023-02-22T09:27:41;95932.44;;;8.43;100.00
2397;BME280;1209;48.410;9.054;2023-02-22T09:30:10;95934.81;;;8.61;100.00
2397;BME280;1209;48.410;9.054;2023-02-22T09:32:39;95939.19;;;8.91;100.00
2397;BME280;1209;48.410;9.054;2023-02-22T09:35:05;95931.03;;;9.40;100.00
2397;BME280;1209;48.410;9.054;2023-02-22T09:37:32;95928.78;;;9.74;100.00
2397;BME280;1209;48.410;9.054;2023-02-22T09:39:57;95923.56;;;9.89;100.00
2397;BME280;1209;48.410;9.054;2023-02-22T09:42:28;95926.06;;;10.20;100.00
2397;BME280;1209;48.410;9.054;2023-02-22T09:47:37;95932.91;;;10.51;100.00
2397;BME280;1209;48.410;9.054;2023-02-22T09:50:19;95930.56;;;10.92;100.00
2397;BME280;1209;48.410;9.054;2023-02-22T09:58:01;95920.38;;;11.18;100.00
2397;BME280;1209;48.410;9.054;2023-02-22T10:00:31;95916.69;;;11.34;100.00
2397;BME280;1209;48.410;9.054;2023-02-22T10:05:57;95923.88;;;11.47;100.00
2397;BME280;1209;48.410;9.054;2023-02-22T10:08:27;95921.56;;;11.37;100.00
2397;BME280;1209;48.410;9.054;2023-02-22T10:11:05;95917.44;;;11.77;100.00
2397;BME280;1209;48.410;9.054;2023-02-22T10:16:51;95925.66;;;12.65;99.54
2397;BME280;1209;48.410;9.054;2023-02-22T10:27:14;95919.13;;;12.47;96.47
2397;BME280;1209;48.410;9.054;2023-02-22T10:29:45;95922.16;;;12.10;98.78
2397;BME280;1209;48.410;9.054;2023-02-22T10:32:23;95914.22;;;12.31;97.29
2397;BME280;1209;48.410;9.054;2023-02-22T10:34:51;95919.59;;;12.23;97.46
2397;BME280;1209;48.410;9.054;2023-02-22T10:37:28;95912.88;;;12.42;95.04
2397;BME280;1209;48.410;9.054;2023-02-22T10:40:16;95918.78;;;12.57;98.45
2397;BME280;1209;48.410;9.054;2023-02-22T10:42:42;95918.63;;;13.26;90.94
2397;BME280;1209;48.410;9.054;2023-02-22T10:45:24;95918.44;;;13.61;85.43
2397;BME280;1209;48.410;9.054;2023-02-22T10:47:54;95915.41;;;13.57;83.22
2397;BME280;1209;48.410;9.054;2023-02-22T10:50:20;95915.41;;;13.37;86.02
2397;BME280;1209;48.410;9.054;2023-02-22T10:52:46;95910.34;;;13.49;85.21
2397;BME280;1209;48.410;9.054;2023-02-22T10:55:13;95912.16;;;13.62;82.44
2397;BME280;1209;48.410;9.054;2023-02-22T10:57:41;95905.69;;;14.04;83.06
2397;BME280;1209;48.410;9.054;2023-02-22T11:02:55;95898.06;;;13.76;84.85
2397;BME280;1209;48.410;9.054;2023-02-22T11:08:17;95883.91;;;13.90;82.29
2397;BME280;1209;48.410;9.054;2023-02-22T11:10:48;95890.91;;;14.23;81.96
2397;BME280;1209;48.410;9.054;2023-02-22T11:13:29;95895.06;;;14.57;80.73
2397;BME280;1209;48.410;9.054;2023-02-22T11:16:02;95884.53;;;14.63;77.42
2397;BME280;1209;48.410;9.054;2023-02-22T11:18:41;95874.25;;;14.55;76.10
2397;BME280;1209;48.410;9.054;2023-02-22T11:21:09;95876.56;;;14.25;78.02
2397;BME280;1209;48.410;9.054;2023-02-22T11:23:37;95875.72;;;14.31;79.00
2397;BME280;1209;48.410;9.054;2023-02-22T11:26:07;95873.53;;;14.22;78.17
2397;BME280;1209;48.410;9.054;2023-02-22T11:28:35;95865.41;;;14.36;76.49
2397;BME280;1209;48.410;9.054;2023-02-22T11:36:37;95857.97;;;14.27;79.80
2397;BME280;1209;48.410;9.054;2023-02-22T11:39:30;95846.66;;;14.26;77.95
2397;BME280;1209;48.410;9.054;2023-02-22T11:44:47;95839.41;;;14.73;76.44
2397;BME280;1209;48.410;9.054;2023-02-22T11:47:13;95843.28;;;14.64;77.62
2397;BME280;1209;48.410;9.054;2023-02-22T11:49:41;95846.53;;;14.59;79.46
2397;BME280;1209;48.410;9.054;2023-02-22T11:52:24;95839.28;;;14.55;77.25
2397;BME280;1209;48.410;9.054;2023-02-22T11:55:13;95838.09;;;14.51;75.27
2397;BME280;1209;48.410;9.054;2023-02-22T12:01:01;95833.94;;;14.74;77.75
2397;BME280;1209;48.410;9.054;2023-02-22T12:06:36;95818.19;;;14.99;72.38
2397;BME280;1209;48.410;9.054;2023-02-22T12:09:18;95826.31;;;14.98;73.32
2397;BME280;1209;48.410;9.054;2023-02-22T12:12:19;95826.94;;;14.93;72.71
2397;BME280;1209;48.410;9.054;2023-02-22T12:14:56;95814.72;;;15.05;74.01
2397;BME280;1209;48.410;9.054;2023-02-22T12:17:29;95808.66;;;15.05;70.97
2397;BME280;1209;48.410;9.054;2023-02-22T12:20:01;95815.31;;;15.07;72.82
2397;BME280;1209;48.410;9.054;2023-02-22T12:22:33;95813.56;;;15.26;72.76
2397;BME280;1209;48.410;9.054;2023-02-22T12:25:04;95802.03;;;15.27;69.53
2397;BME280;1209;48.410;9.054;2023-02-22T12:27:40;95799.13;;;15.35;70.71
2397;BME280;1209;48.410;9.054;2023-02-22T12:30:35;95805.72;;;15.20;69.33
2397;BME280;1209;48.410;9.054;2023-02-22T12:33:02;95811.59;;;15.22;68.18
2397;BME280;1209;48.410;9.054;2023-02-22T12:35:32;95811.59;;;15.22;67.54
2397;BME280;1209;48.410;9.054;2023-02-22T12:38:19;95805.44;;;15.03;69.48
2397;BME280;1209;48.410;9.054;2023-02-22T12:40:55;95804.75;;;15.39;69.33
2397;BME280;1209;48.410;9.054;2023-02-22T12:43:28;95806.81;;;15.55;68.52
2397;BME280;1209;48.410;9.054;2023-02-22T12:46:05;95812.88;;;15.37;68.38
2397;BME280;1209;48.410;9.054;2023-02-22T12:48:42;95812.34;;;15.29;69.04
2397;BME280;1209;48.410;9.054;2023-02-22T12:54:06;95814.72;;;15.62;69.57
2397;BME280;1209;48.410;9.054;2023-02-22T12:59:19;95809.06;;;15.58;68.81
2397;BME280;1209;48.410;9.054;2023-02-22T13:01:53;95806.31;;;15.47;70.26
2397;BME280;1209;48.410;9.054;2023-02-22T13:04:20;95804.69;;;15.46;70.06
2397;BME280;1209;48.410;9.054;2023-02-22T13:07:09;95804.84;;;15.01;70.86
2397;BME280;1209;48.410;9.054;2023-02-22T13:13:01;95806.72;;;14.94;70.81
2397;BME280;1209;48.410;9.054;2023-02-22T13:18:36;95795.88;;;14.84;73.31
2397;BME280;1209;48.410;9.054;2023-02-22T13:21:12;95799.72;;;14.81;75.24
2397;BME280;1209;48.410;9.054;2023-02-22T13:23:53;95793.19;;;14.90;74.12
2397;BME280;1209;48.410;9.054;2023-02-22T13:29:09;95793.13;;;14.97;72.49
2397;BME280;1209;48.410;9.054;2023-02-22T13:42:03;95776.06;;;15.06;72.25
2397;BME280;1209;48.410;9.054;2023-02-22T13:44:56;95781.72;;;15.09;73.86
2397;BME280;1209;48.410;9.054;2023-02-22T13:53:58;95775.19;;;15.19;70.41
2397;BME280;1209;48.410;9.054;2023-02-22T13:56:23;95780.88;;;15.16;73.44
2397;BME280;1209;48.410;9.054;2023-02-22T13:58:56;95788.00;;;15.08;68.85
2397;BME280;1209;48.410;9.054;2023-02-22T14:01:45;95779.94;;;15.03;70.23
2397;BME280;1209;48.410;9.054;2023-02-22T14:06:52;95781.91;;;15.15;70.06
2397;BME280;1209;48.410;9.054;2023-02-22T14:17:43;95790.31;;;14.60;72.47
2397;BME280;1209;48.410;9.054;2023-02-22T14:22:39;95786.56;;;14.49;72.20
2397;BME280;1209;48.410;9.054;2023-02-22T14:25:05;95780.44;;;14.56;73.25
2397;BME280;1209;48.410;9.054;2023-02-22T14:27:39;95775.63;;;14.53;73.68
2397;BME280;1209;48.410;9.054;2023-02-22T14:30:05;95778.59;;;14.63;74.71
2397;BME280;1209;48.410;9.054;2023-02-22T14:32:32;95780.56;;;14.74;73.47
2397;BME280;1209;48.410;9.054;2023-02-22T14:35:25;95775.97;;;14.63;73.76
2397;BME280;1209;48.410;9.054;2023-02-22T14:37:57;95782.00;;;14.70;74.92
2397;BME280;1209;48.410;9.054;2023-02-22T14:40:26;95785.44;;;14.64;73.92
2397;BME280;1209;48.410;9.054;2023-02-22T14:43:03;95780.84;;;14.59;75.32
2397;BME280;1209;48.410;9.054;2023-02-22T14:45:35;95780.63;;;14.61;76.45
2397;BME280;1209;48.410;9.054;2023-02-22T14:50:50;95778.28;;;14.46;73.79
2397;BME280;1209;48.410;9.054;2023-02-22T14:53:23;95776.44;;;14.53;74.27
2397;BME280;1209;48.410;9.054;2023-02-22T14:56:02;95772.22;;;14.45;75.18
2397;BME280;1209;48.410;9.054;2023-02-22T14:58:33;95772.88;;;14.72;74.26
2397;BME280;1209;48.410;9.054;2023-02-22T15:03:44;95767.19;;;14.37;75.58
2397;BME280;1209;48.410;9.054;2023-02-22T15:06:22;95768.63;;;14.33;76.04
2397;BME280;1209;48.410;9.054;2023-02-22T15:08:54;95763.78;;;14.30;75.74
2397;BME280;1209;48.410;9.054;2023-02-22T15:11:29;95779.81;;;14.15;76.07
2397;BME280;1209;48.410;9.054;2023-02-22T15:13:56;95767.69;;;14.14;77.28
2397;BME280;1209;48.410;9.054;2023-02-22T15:16:25;95772.78;;;14.03;78.07
2397;BME280;1209;48.410;9.054;2023-02-22T15:18:54;95773.38;;;14.05;78.49
2397;BME280;1209;48.410;9.054;2023-02-22T15:21:23;95775.59;;;14.08;79.12
2397;BME280;1209;48.410;9.054;2023-02-22T15:23:58;95773.81;;;14.02;79.75
2397;BME280;1209;48.410;9.054;2023-02-22T15:26:30;95780.91;;;13.95;78.62
2397;BME280;1209;48.410;9.054;2023-02-22T15:28:59;95773.22;;;14.00;78.05
2397;BME280;1209;48.410;9.054;2023-02-22T15:33:55;95782.56;;;13.82;80.37
2397;BME280;1209;48.410;9.054;2023-02-22T15:36:25;95781.91;;;13.94;80.07